sensor_id;sensor_type;location;lat;lon;timestamp;pressure;altitude;pressure_sealevel;temperature;humidity
70133;BME280;57495;49.922;7.966;2022-07-23T00:01:22;99885.81;;;22.90;59.49
70133;BME280;57495;49.922;7.966;2022-07-23T00:03:24;99881.13;;;22.79;59.84
70133;BME280;57495;49.922;7.966;2022-07-23T00:05:26;99885.38;;;22.93;59.50
70133;BME280;57495;49.922;7.966;2022-07-23T00:07:27;99894.00;;;22.72;60.04
70133;BME280;57495;49.922;7.966;2022-07-23T00:09:30;99892.69;;;22.74;60.07
70133;BME280;57495;49.922;7.966;2022-07-23T00:11:32;99893.78;;;22.92;59.68
70133;BME280;57495;49.922;7.966;2022-07-23T00:13:33;99883.03;;;22.97;59.44
70133;BME280;57495;49.922;7.966;2022-07-23T00:15:35;99873.69;;;22.86;60.09
70133;BME280;57495;49.922;7.966;2022-07-23T00:17:36;99866.50;;;22.92;59.58
70133;BME280;57495;49.922;7.966;2022-07-23T00:19:38;99862.41;;;22.83;59.91
70133;BME280;57495;49.922;7.966;2022-07-23T00:21:39;99848.19;;;22.81;59.57
70133;BME280;57495;49.922;7.966;2022-07-23T00:23:41;99847.84;;;22.70;59.92
70133;BME280;57495;49.922;7.966;2022-07-23T00:25:43;99849.31;;;22.73;59.76
70133;BME280;57495;49.922;7.966;2022-07-23T00:27:45;99848.78;;;22.64;60.18
70133;BME280;57495;49.922;7.966;2022-07-23T00:29:47;99855.50;;;22.62;60.11
70133;BME280;57495;49.922;7.966;2022-07-23T00:31:48;99876.56;;;22.54;60.60
70133;BME280;57495;49.922;7.966;2022-07-23T00:33:49;99888.78;;;22.20;61.45
70133;BME280;57495;49.922;7.966;2022-07-23T00:35:51;99905.81;;;22.15;61.99
70133;BME280;57495;49.922;7.966;2022-07-23T00:37:53;99900.53;;;21.89;63.13
70133;BME280;57495;49.922;7.966;2022-07-23T00:39:55;99918.44;;;21.26;65.35
70133;BME280;57495;49.922;7.966;2022-07-23T00:41:57;99925.97;;;21.31;65.68
70133;BME280;57495;49.922;7.966;2022-07-23T00:44:14;99946.88;;;21.30;65.41
70133;BME280;57495;49.922;7.966;2022-07-23T00:46:19;99937.56;;;21.58;64.84
70133;BME280;57495;49.922;7.966;2022-07-23T00:48:20;99938.25;;;21.85;63.98
70133;BME280;57495;49.922;7.966;2022-07-23T00:50:21;99925.63;;;21.97;64.04
70133;BME280;57495;49.922;7.966;2022-07-23T00:52:23;99923.41;;;22.13;65.50
70133;BME280;57495;49.922;7.966;2022-07-23T00:54:26;99932.97;;;21.97;67.83
70133;BME280;57495;49.922;7.966;2022-07-23T00:56:29;99942.38;;;22.01;68.84
70133;BME280;57495;49.922;7.966;2022-07-23T00:58:32;99937.00;;;21.88;69.88
70133;BME280;57495;49.922;7.966;2022-07-23T01:00:35;99925.56;;;22.04;70.53
70133;BME280;57495;49.922;7.966;2022-07-23T01:02:37;99919.06;;;22.05;71.41
70133;BME280;57495;49.922;7.966;2022-07-23T01:04:38;99902.56;;;22.00;71.25
70133;BME280;57495;49.922;7.966;2022-07-23T01:06:40;99873.28;;;21.95;70.66
70133;BME280;57495;49.922;7.966;2022-07-23T01:08:43;99846.50;;;21.86;71.36
70133;BME280;57495;49.922;7.966;2022-07-23T01:10:46;99850.03;;;21.93;71.38
70133;BME280;57495;49.922;7.966;2022-07-23T01:12:47;99870.25;;;21.78;72.50
70133;BME280;57495;49.922;7.966;2022-07-23T01:14:54;99883.88;;;21.78;73.20
70133;BME280;57495;49.922;7.966;2022-07-23T01:16:56;99898.16;;;21.67;72.29
70133;BME280;57495;49.922;7.966;2022-07-23T01:18:57;99898.53;;;21.77;72.70
70133;BME280;57495;49.922;7.966;2022-07-23T01:20:59;99897.47;;;21.78;72.18
70133;BME280;57495;49.922;7.966;2022-07-23T01:23:02;99894.56;;;21.73;72.19
70133;BME280;57495;49.922;7.966;2022-07-23T01:25:04;99881.56;;;21.75;72.47
70133;BME280;57495;49.922;7.966;2022-07-23T01:27:05;99869.28;;;21.66;72.79
70133;BME280;57495;49.922;7.966;2022-07-23T01:29:07;99885.28;;;21.42;74.62
70133;BME280;57495;49.922;7.966;2022-07-23T01:31:08;99876.94;;;21.51;73.82
70133;BME280;57495;49.922;7.966;2022-07-23T01:33:10;99879.53;;;21.19;75.45
70133;BME280;57495;49.922;7.966;2022-07-23T01:35:11;99871.69;;;21.42;74.11
70133;BME280;57495;49.922;7.966;2022-07-23T01:37:13;99882.44;;;21.31;74.69
70133;BME280;57495;49.922;7.966;2022-07-23T01:39:16;99879.00;;;21.49;73.85
70133;BME280;57495;49.922;7.966;2022-07-23T01:41:17;99877.56;;;21.39;74.42
70133;BME280;57495;49.922;7.966;2022-07-23T01:43:19;99888.06;;;21.36;74.38
70133;BME280;57495;49.922;7.966;2022-07-23T01:45:20;99893.94;;;21.26;74.23
70133;BME280;57495;49.922;7.966;2022-07-23T01:47:22;99901.25;;;21.32;74.08
70133;BME280;57495;49.922;7.966;2022-07-23T01:49:23;99912.56;;;21.36;74.60
70133;BME280;57495;49.922;7.966;2022-07-23T01:51:25;99911.34;;;21.18;75.14
70133;BME280;57495;49.922;7.966;2022-07-23T01:53:26;99909.34;;;20.94;75.49
70133;BME280;57495;49.922;7.966;2022-07-23T01:55:29;99897.97;;;21.17;74.27
70133;BME280;57495;49.922;7.966;2022-07-23T01:57:31;99883.66;;;20.83;75.10
70133;BME280;57495;49.922;7.966;2022-07-23T01:59:33;99871.63;;;21.11;74.49
70133;BME280;57495;49.922;7.966;2022-07-23T02:01:34;99874.94;;;21.19;74.19
70133;BME280;57495;49.922;7.966;2022-07-23T02:03:35;99897.75;;;21.12;74.54
70133;BME280;57495;49.922;7.966;2022-07-23T02:05:37;99907.66;;;20.99;75.26
70133;BME280;57495;49.922;7.966;2022-07-23T02:07:38;99904.69;;;21.14;74.93
70133;BME280;57495;49.922;7.966;2022-07-23T02:09:40;99917.63;;;21.19;74.98
70133;BME280;57495;49.922;7.966;2022-07-23T02:11:43;99915.97;;;21.11;75.13
70133;BME280;57495;49.922;7.966;2022-07-23T02:13:44;99911.81;;;21.09;74.66
70133;BME280;57495;49.922;7.966;2022-07-23T02:15:46;99908.84;;;21.17;74.39
70133;BME280;57495;49.922;7.966;2022-07-23T02:17:47;99904.28;;;21.11;74.20
70133;BME280;57495;49.922;7.966;2022-07-23T02:19:49;99910.56;;;21.04;73.65
70133;BME280;57495;49.922;7.966;2022-07-23T02:21:50;99899.69;;;21.04;73.53
70133;BME280;57495;49.922;7.966;2022-07-23T02:23:52;99897.19;;;20.96;74.03
70133;BME280;57495;49.922;7.966;2022-07-23T02:25:53;99891.75;;;20.96;73.64
70133;BME280;57495;49.922;7.966;2022-07-23T02:27:56;99887.13;;;21.03;73.57
70133;BME280;57495;49.922;7.966;2022-07-23T02:29:57;99888.00;;;20.97;73.59
70133;BME280;57495;49.922;7.966;2022-07-23T02:31:58;99884.25;;;20.92;73.55
70133;BME280;57495;49.922;7.966;2022-07-23T02:34:00;99876.97;;;20.79;74.33
70133;BME280;57495;49.922;7.966;2022-07-23T02:36:02;99864.00;;;20.81;74.33
70133;BME280;57495;49.922;7.966;2022-07-23T02:38:03;99856.31;;;20.71;75.01
70133;BME280;57495;49.922;7.966;2022-07-23T02:40:05;99858.78;;;20.59;75.18
70133;BME280;57495;49.922;7.966;2022-07-23T02:42:07;99866.94;;;20.59;75.49
70133;BME280;57495;49.922;7.966;2022-07-23T02:44:10;99865.50;;;20.77;75.18
70133;BME280;57495;49.922;7.966;2022-07-23T02:46:11;99866.25;;;20.91;75.00
70133;BME280;57495;49.922;7.966;2022-07-23T02:48:13;99867.38;;;20.70;74.82
70133;BME280;57495;49.922;7.966;2022-07-23T02:50:14;99866.75;;;20.68;75.54
70133;BME280;57495;49.922;7.966;2022-07-23T02:52:16;99866.34;;;20.64;75.67
70133;BME280;57495;49.922;7.966;2022-07-23T02:54:17;99860.88;;;20.71;75.73
70133;BME280;57495;49.922;7.966;2022-07-23T02:56:19;99857.53;;;20.69;75.26
70133;BME280;57495;49.922;7.966;2022-07-23T02:58:20;99866.72;;;20.81;74.66
70133;BME280;57495;49.922;7.966;2022-07-23T03:00:23;99865.94;;;20.60;75.75
70133;BME280;57495;49.922;7.966;2022-07-23T03:02:25;99856.72;;;20.68;75.05
70133;BME280;57495;49.922;7.966;2022-07-23T03:04:26;99868.63;;;20.67;75.07
70133;BME280;57495;49.922;7.966;2022-07-23T03:06:27;99866.34;;;20.64;75.02
70133;BME280;57495;49.922;7.966;2022-07-23T03:08:29;99878.88;;;20.65;74.67
70133;BME280;57495;49.922;7.966;2022-07-23T03:10:30;99890.38;;;20.74;74.66
70133;BME280;57495;49.922;7.966;2022-07-23T03:12:32;99904.38;;;20.77;74.40
70133;BME280;57495;49.922;7.966;2022-07-23T03:14:33;99918.19;;;20.62;74.86
70133;BME280;57495;49.922;7.966;2022-07-23T03:16:36;99924.88;;;20.73;74.66
70133;BME280;57495;49.922;7.966;2022-07-23T03:18:37;99933.66;;;20.69;74.33
70133;BME280;57495;49.922;7.966;2022-07-23T03:20:39;99929.91;;;20.70;74.81
70133;BME280;57495;49.922;7.966;2022-07-23T03:22:40;99918.16;;;20.76;74.76
70133;BME280;57495;49.922;7.966;2022-07-23T03:24:41;99914.81;;;20.74;74.76
70133;BME280;57495;49.922;7.966;2022-07-23T03:26:55;99924.00;;;20.73;74.77
70133;BME280;57495;49.922;7.966;2022-07-23T03:28:56;99918.56;;;20.86;74.15
70133;BME280;57495;49.922;7.966;2022-07-23T03:30:58;99911.25;;;20.80;74.81
70133;BME280;57495;49.922;7.966;2022-07-23T03:33:00;99908.13;;;20.83;74.23
70133;BME280;57495;49.922;7.966;2022-07-23T03:35:02;99905.84;;;20.66;75.11
70133;BME280;57495;49.922;7.966;2022-07-23T03:37:04;99899.56;;;20.79;73.94
70133;BME280;57495;49.922;7.966;2022-07-23T03:39:05;99902.91;;;20.61;74.45
70133;BME280;57495;49.922;7.966;2022-07-23T03:41:07;99908.97;;;20.57;74.84
70133;BME280;57495;49.922;7.966;2022-07-23T03:43:08;99919.84;;;20.63;74.30
70133;BME280;57495;49.922;7.966;2022-07-23T03:45:10;99918.16;;;20.56;75.14
70133;BME280;57495;49.922;7.966;2022-07-23T03:47:11;99919.44;;;20.66;74.43
70133;BME280;57495;49.922;7.966;2022-07-23T03:49:14;99919.84;;;20.77;73.90
70133;BME280;57495;49.922;7.966;2022-07-23T03:51:15;99924.47;;;20.70;74.49
70133;BME280;57495;49.922;7.966;2022-07-23T03:53:17;99931.16;;;20.60;74.32
70133;BME280;57495;49.922;7.966;2022-07-23T03:55:18;99930.72;;;20.70;74.10
70133;BME280;57495;49.922;7.966;2022-07-23T03:57:20;99940.53;;;20.51;74.47
70133;BME280;57495;49.922;7.966;2022-07-23T03:59:21;99943.66;;;20.48;74.12
70133;BME280;57495;49.922;7.966;2022-07-23T04:01:22;99940.53;;;20.44;74.08
70133;BME280;57495;49.922;7.966;2022-07-23T04:03:24;99947.81;;;20.04;76.18
70133;BME280;57495;49.922;7.966;2022-07-23T04:05:27;99946.56;;;20.00;76.53
70133;BME280;57495;49.922;7.966;2022-07-23T04:07:28;99957.00;;;20.09;76.03
70133;BME280;57495;49.922;7.966;2022-07-23T04:09:29;99962.91;;;20.33;75.07
70133;BME280;57495;49.922;7.966;2022-07-23T04:11:31;99965.78;;;20.12;75.72
70133;BME280;57495;49.922;7.966;2022-07-23T04:13:32;99966.00;;;20.10;76.05
70133;BME280;57495;49.922;7.966;2022-07-23T04:15:34;99961.84;;;20.14;76.05
70133;BME280;57495;49.922;7.966;2022-07-23T04:17:35;99962.47;;;20.23;75.90
70133;BME280;57495;49.922;7.966;2022-07-23T04:19:37;99961.84;;;20.34;75.32
70133;BME280;57495;49.922;7.966;2022-07-23T04:21:42;99966.44;;;20.34;75.22
70133;BME280;57495;49.922;7.966;2022-07-23T04:23:43;99974.19;;;20.37;75.10
70133;BME280;57495;49.922;7.966;2022-07-23T04:25:44;99983.34;;;20.09;75.12
70133;BME280;57495;49.922;7.966;2022-07-23T04:27:46;99981.06;;;20.26;75.01
70133;BME280;57495;49.922;7.966;2022-07-23T04:29:47;99976.03;;;20.03;75.70
70133;BME280;57495;49.922;7.966;2022-07-23T04:31:49;99967.66;;;20.11;75.44
70133;BME280;57495;49.922;7.966;2022-07-23T04:33:50;99983.56;;;20.14;74.66
70133;BME280;57495;49.922;7.966;2022-07-23T04:35:52;99981.25;;;20.04;74.92
70133;BME280;57495;49.922;7.966;2022-07-23T04:37:54;99986.66;;;19.98;75.24
70133;BME280;57495;49.922;7.966;2022-07-23T04:39:56;99998.63;;;20.23;74.20
70133;BME280;57495;49.922;7.966;2022-07-23T04:41:57;99984.81;;;20.18;74.36
70133;BME280;57495;49.922;7.966;2022-07-23T04:43:59;99983.56;;;20.14;74.88
70133;BME280;57495;49.922;7.966;2022-07-23T04:46:00;99984.19;;;20.16;74.63
70133;BME280;57495;49.922;7.966;2022-07-23T04:48:01;99984.78;;;20.12;74.83
70133;BME280;57495;49.922;7.966;2022-07-23T04:50:04;99989.63;;;20.16;74.85
70133;BME280;57495;49.922;7.966;2022-07-23T04:52:05;99987.31;;;20.13;74.47
70133;BME280;57495;49.922;7.966;2022-07-23T04:54:08;99988.16;;;20.20;74.20
70133;BME280;57495;49.922;7.966;2022-07-23T04:56:09;99995.69;;;20.18;75.13
70133;BME280;57495;49.922;7.966;2022-07-23T04:58:11;100001.75;;;20.27;74.47
70133;BME280;57495;49.922;7.966;2022-07-23T05:00:13;100002.59;;;20.27;74.04
70133;BME280;57495;49.922;7.966;2022-07-23T05:02:14;100008.03;;;20.34;74.19
70133;BME280;57495;49.922;7.966;2022-07-23T05:04:15;100018.03;;;20.20;74.74
70133;BME280;57495;49.922;7.966;2022-07-23T05:06:17;100007.00;;;20.28;74.72
70133;BME280;57495;49.922;7.966;2022-07-23T05:08:18;100000.28;;;20.18;74.32
70133;BME280;57495;49.922;7.966;2022-07-23T05:10:21;100005.94;;;20.23;74.25
70133;BME280;57495;49.922;7.966;2022-07-23T05:12:23;100009.03;;;20.26;74.13
70133;BME280;57495;49.922;7.966;2022-07-23T05:14:24;100005.94;;;20.23;74.11
70133;BME280;57495;49.922;7.966;2022-07-23T05:16:25;100002.59;;;20.34;74.15
70133;BME280;57495;49.922;7.966;2022-07-23T05:18:27;100010.13;;;20.39;73.28
70133;BME280;57495;49.922;7.966;2022-07-23T05:20:28;100014.91;;;20.23;73.84
70133;BME280;57495;49.922;7.966;2022-07-23T05:22:30;100018.03;;;20.20;74.34
70133;BME280;57495;49.922;7.966;2022-07-23T05:24:31;100019.72;;;20.28;73.88
70133;BME280;57495;49.922;7.966;2022-07-23T05:26:34;100019.94;;;20.33;74.08
70133;BME280;57495;49.922;7.966;2022-07-23T05:28:35;100021.44;;;20.49;73.41
70133;BME280;57495;49.922;7.966;2022-07-23T05:30:37;100030.41;;;20.36;73.48
70133;BME280;57495;49.922;7.966;2022-07-23T05:32:38;100026.44;;;20.52;73.63
70133;BME280;57495;49.922;7.966;2022-07-23T05:34:39;100030.03;;;20.66;73.17
70133;BME280;57495;49.922;7.966;2022-07-23T05:36:41;100023.75;;;20.79;72.81
70133;BME280;57495;49.922;7.966;2022-07-23T05:38:42;100031.47;;;20.82;72.45
70133;BME280;57495;49.922;7.966;2022-07-23T05:40:44;100034.41;;;20.74;73.13
70133;BME280;57495;49.922;7.966;2022-07-23T05:42:46;100034.81;;;20.71;73.11
70133;BME280;57495;49.922;7.966;2022-07-23T05:44:48;100032.75;;;20.86;72.75
70133;BME280;57495;49.922;7.966;2022-07-23T05:46:49;100038.38;;;20.78;72.65
70133;BME280;57495;49.922;7.966;2022-07-23T05:48:50;100039.63;;;20.82;72.22
70133;BME280;57495;49.922;7.966;2022-07-23T05:50:52;100031.91;;;20.85;72.40
70133;BME280;57495;49.922;7.966;2022-07-23T05:52:53;100026.88;;;20.96;71.88
70133;BME280;57495;49.922;7.966;2022-07-23T05:54:55;100028.97;;;21.14;71.60
70133;BME280;57495;49.922;7.966;2022-07-23T05:56:56;100043.19;;;21.16;71.76
70133;BME280;57495;49.922;7.966;2022-07-23T05:58:59;100040.25;;;21.04;71.70
70133;BME280;57495;49.922;7.966;2022-07-23T06:01:01;100035.00;;;21.22;71.23
70133;BME280;57495;49.922;7.966;2022-07-23T06:03:02;100037.91;;;21.28;71.17
70133;BME280;57495;49.922;7.966;2022-07-23T06:05:04;100035.19;;;21.34;70.69
70133;BME280;57495;49.922;7.966;2022-07-23T06:07:07;100036.00;;;21.55;70.71
70133;BME280;57495;49.922;7.966;2022-07-23T06:09:09;100040.56;;;21.68;69.22
70133;BME280;57495;49.922;7.966;2022-07-23T06:11:11;100032.53;;;21.79;69.77
70133;BME280;57495;49.922;7.966;2022-07-23T06:13:12;100035.66;;;21.90;69.39
70133;BME280;57495;49.922;7.966;2022-07-23T06:15:15;100017.34;;;22.04;69.50
70133;BME280;57495;49.922;7.966;2022-07-23T06:17:17;100024.88;;;22.08;68.95
70133;BME280;57495;49.922;7.966;2022-07-23T06:19:18;100028.16;;;22.17;68.26
70133;BME280;57495;49.922;7.966;2022-07-23T06:21:20;100029.00;;;22.17;68.63
70133;BME280;57495;49.922;7.966;2022-07-23T06:23:21;100031.78;;;22.04;68.64
70133;BME280;57495;49.922;7.966;2022-07-23T06:25:23;100036.72;;;22.20;68.48
70133;BME280;57495;49.922;7.966;2022-07-23T06:27:24;100043.69;;;22.48;68.25
70133;BME280;57495;49.922;7.966;2022-07-23T06:29:26;100038.19;;;22.23;68.78
70133;BME280;57495;49.922;7.966;2022-07-23T06:31:28;100046.94;;;22.32;67.75
70133;BME280;57495;49.922;7.966;2022-07-23T06:33:30;100052.25;;;22.58;67.44
70133;BME280;57495;49.922;7.966;2022-07-23T06:35:31;100048.50;;;22.53;67.05
70133;BME280;57495;49.922;7.966;2022-07-23T06:37:34;100052.09;;;22.47;67.17
70133;BME280;57495;49.922;7.966;2022-07-23T06:39:35;100049.75;;;22.50;66.80
70133;BME280;57495;49.922;7.966;2022-07-23T06:41:36;100041.97;;;22.29;67.49
70133;BME280;57495;49.922;7.966;2022-07-23T06:43:38;100050.06;;;22.35;67.19
70133;BME280;57495;49.922;7.966;2022-07-23T06:45:39;100051.91;;;22.73;66.96
70133;BME280;57495;49.922;7.966;2022-07-23T06:47:42;100054.81;;;23.04;67.13
70133;BME280;57495;49.922;7.966;2022-07-23T06:49:44;100056.47;;;23.30;65.68
70133;BME280;57495;49.922;7.966;2022-07-23T06:51:45;100052.06;;;23.29;63.71
70133;BME280;57495;49.922;7.966;2022-07-23T06:53:47;100054.50;;;23.37;64.54
70133;BME280;57495;49.922;7.966;2022-07-23T06:55:48;100062.91;;;23.35;65.06
70133;BME280;57495;49.922;7.966;2022-07-23T06:57:49;100072.03;;;23.48;63.38
70133;BME280;57495;49.922;7.966;2022-07-23T06:59:51;100066.88;;;23.40;63.99
70133;BME280;57495;49.922;7.966;2022-07-23T07:01:52;100064.22;;;23.70;63.41
70133;BME280;57495;49.922;7.966;2022-07-23T07:03:55;100069.34;;;23.78;62.09
70133;BME280;57495;49.922;7.966;2022-07-23T07:05:57;100068.38;;;23.72;62.46
70133;BME280;57495;49.922;7.966;2022-07-23T07:07:58;100067.94;;;23.76;63.02
70133;BME280;57495;49.922;7.966;2022-07-23T07:09:59;100075.16;;;23.88;62.07
70133;BME280;57495;49.922;7.966;2022-07-23T07:12:01;100075.38;;;24.05;63.12
70133;BME280;57495;49.922;7.966;2022-07-23T07:14:03;100068.81;;;24.25;61.96
70133;BME280;57495;49.922;7.966;2022-07-23T07:16:05;100076.81;;;24.38;60.53
70133;BME280;57495;49.922;7.966;2022-07-23T07:18:06;100078.00;;;24.42;60.56
70133;BME280;57495;49.922;7.966;2022-07-23T07:20:10;100083.44;;;24.61;59.76
70133;BME280;57495;49.922;7.966;2022-07-23T07:22:11;100083.13;;;24.69;60.39
70133;BME280;57495;49.922;7.966;2022-07-23T07:24:13;100085.00;;;24.57;59.52
70133;BME280;57495;49.922;7.966;2022-07-23T07:26:14;100078.47;;;24.39;59.74
70133;BME280;57495;49.922;7.966;2022-07-23T07:28:15;100084.81;;;24.51;60.06
70133;BME280;57495;49.922;7.966;2022-07-23T07:30:17;100086.41;;;24.59;60.22
70133;BME280;57495;49.922;7.966;2022-07-23T07:32:18;100088.09;;;24.72;59.40
70133;BME280;57495;49.922;7.966;2022-07-23T07:34:20;100094.19;;;24.74;59.25
70133;BME280;57495;49.922;7.966;2022-07-23T07:36:23;100094.84;;;24.58;59.79
70133;BME280;57495;49.922;7.966;2022-07-23T07:38:24;100099.28;;;24.40;60.12
70133;BME280;57495;49.922;7.966;2022-07-23T07:40:25;100105.66;;;24.53;59.58
70133;BME280;57495;49.922;7.966;2022-07-23T07:42:27;100110.66;;;24.56;60.12
70133;BME280;57495;49.922;7.966;2022-07-23T07:44:28;100113.50;;;25.03;59.15
70133;BME280;57495;49.922;7.966;2022-07-23T07:46:30;100109.09;;;25.02;57.42
70133;BME280;57495;49.922;7.966;2022-07-23T07:48:31;100113.88;;;25.18;57.97
70133;BME280;57495;49.922;7.966;2022-07-23T07:50:33;100113.66;;;25.08;58.01
70133;BME280;57495;49.922;7.966;2022-07-23T07:52:35;100118.78;;;25.28;55.64
70133;BME280;57495;49.922;7.966;2022-07-23T07:54:37;100114.03;;;25.35;56.34
70133;BME280;57495;49.922;7.966;2022-07-23T07:56:38;100119.97;;;25.56;56.63
70133;BME280;57495;49.922;7.966;2022-07-23T07:58:40;100116.47;;;25.13;56.50
70133;BME280;57495;49.922;7.966;2022-07-23T08:00:41;100114.25;;;25.34;55.76
70133;BME280;57495;49.922;7.966;2022-07-23T08:02:44;100122.00;;;25.60;55.78
70133;BME280;57495;49.922;7.966;2022-07-23T08:04:46;100119.50;;;25.59;55.16
70133;BME280;57495;49.922;7.966;2022-07-23T08:06:48;100116.00;;;25.87;55.68
70133;BME280;57495;49.922;7.966;2022-07-23T08:08:51;100120.19;;;26.01;54.53
70133;BME280;57495;49.922;7.966;2022-07-23T08:10:53;100123.72;;;26.14;54.40
70133;BME280;57495;49.922;7.966;2022-07-23T08:12:55;100117.72;;;26.29;52.89
70133;BME280;57495;49.922;7.966;2022-07-23T08:14:57;100112.00;;;26.18;53.22
70133;BME280;57495;49.922;7.966;2022-07-23T08:16:59;100119.00;;;26.38;53.00
70133;BME280;57495;49.922;7.966;2022-07-23T08:19:00;100121.31;;;26.46;52.29
70133;BME280;57495;49.922;7.966;2022-07-23T08:21:01;100116.47;;;26.65;51.86
70133;BME280;57495;49.922;7.966;2022-07-23T08:23:05;100123.81;;;26.48;51.68
70133;BME280;57495;49.922;7.966;2022-07-23T08:25:09;100118.59;;;26.06;52.18
70133;BME280;57495;49.922;7.966;2022-07-23T08:27:10;100114.41;;;26.15;52.57
70133;BME280;57495;49.922;7.966;2022-07-23T08:29:12;100117.72;;;26.29;53.14
70133;BME280;57495;49.922;7.966;2022-07-23T08:31:13;100110.38;;;26.92;50.87
70133;BME280;57495;49.922;7.966;2022-07-23T08:33:17;100116.94;;;27.25;51.02
70133;BME280;57495;49.922;7.966;2022-07-23T08:35:22;100117.03;;;27.30;49.53
70133;BME280;57495;49.922;7.966;2022-07-23T08:37:24;100121.16;;;27.88;48.42
70133;BME280;57495;49.922;7.966;2022-07-23T08:39:26;100128.88;;;28.08;47.59
70133;BME280;57495;49.922;7.966;2022-07-23T08:41:29;100129.41;;;27.88;48.19
70133;BME280;57495;49.922;7.966;2022-07-23T08:43:32;100121.50;;;28.36;47.50
70133;BME280;57495;49.922;7.966;2022-07-23T08:45:36;100119.38;;;28.70;47.18
70133;BME280;57495;49.922;7.966;2022-07-23T08:47:38;100121.25;;;28.92;45.51
70133;BME280;57495;49.922;7.966;2022-07-23T08:49:40;100120.94;;;28.61;44.67
70133;BME280;57495;49.922;7.966;2022-07-23T08:51:42;100117.44;;;28.66;45.06
70133;BME280;57495;49.922;7.966;2022-07-23T08:53:44;100113.50;;;28.89;46.20
70133;BME280;57495;49.922;7.966;2022-07-23T08:55:47;100115.00;;;29.34;45.54
70133;BME280;57495;49.922;7.966;2022-07-23T08:57:52;100113.66;;;29.04;44.08
70133;BME280;57495;49.922;7.966;2022-07-23T08:59:54;100119.69;;;29.01;44.59
70133;BME280;57495;49.922;7.966;2022-07-23T09:01:55;100115.16;;;29.22;43.72
70133;BME280;57495;49.922;7.966;2022-07-23T09:03:57;100113.88;;;29.35;43.95
70133;BME280;57495;49.922;7.966;2022-07-23T09:05:59;100115.09;;;29.49;43.06
70133;BME280;57495;49.922;7.966;2022-07-23T09:08:06;100114.09;;;29.66;42.88
70133;BME280;57495;49.922;7.966;2022-07-23T09:10:09;100115.47;;;29.68;43.48
70133;BME280;57495;49.922;7.966;2022-07-23T09:12:10;100117.41;;;29.68;42.53
70133;BME280;57495;49.922;7.966;2022-07-23T09:14:13;100117.63;;;29.61;42.43
70133;BME280;57495;49.922;7.966;2022-07-23T09:16:17;100125.03;;;29.51;43.00
70133;BME280;57495;49.922;7.966;2022-07-23T09:18:19;100121.50;;;29.60;42.92
70133;BME280;57495;49.922;7.966;2022-07-23T09:20:20;100119.72;;;29.86;42.84
70133;BME280;57495;49.922;7.966;2022-07-23T09:22:23;100122.00;;;29.95;41.86
70133;BME280;57495;49.922;7.966;2022-07-23T09:24:26;100118.63;;;29.82;41.21
70133;BME280;57495;49.922;7.966;2022-07-23T09:26:30;100117.09;;;30.12;40.08
70133;BME280;57495;49.922;7.966;2022-07-23T09:28:32;100119.63;;;30.29;40.42
70133;BME280;57495;49.922;7.966;2022-07-23T09:30:35;100116.94;;;30.50;39.38
70133;BME280;57495;49.922;7.966;2022-07-23T09:32:36;100119.94;;;30.33;39.28
70133;BME280;57495;49.922;7.966;2022-07-23T09:34:38;100116.56;;;30.25;39.17
70133;BME280;57495;49.922;7.966;2022-07-23T09:36:39;100116.00;;;30.18;39.37
70133;BME280;57495;49.922;7.966;2022-07-23T09:38:48;100117.78;;;30.55;39.52
70133;BME280;57495;49.922;7.966;2022-07-23T09:41:05;100113.91;;;30.67;38.94
70133;BME280;57495;49.922;7.966;2022-07-23T09:43:07;100117.78;;;30.60;38.88
70133;BME280;57495;49.922;7.966;2022-07-23T09:45:10;100115.88;;;30.87;39.22
70133;BME280;57495;49.922;7.966;2022-07-23T09:47:13;100112.28;;;31.27;38.06
70133;BME280;57495;49.922;7.966;2022-07-23T09:49:17;100111.16;;;31.38;36.48
70133;BME280;57495;49.922;7.966;2022-07-23T09:51:19;100110.59;;;31.57;35.38
70133;BME280;57495;49.922;7.966;2022-07-23T09:53:29;100113.88;;;31.74;35.04
70133;BME280;57495;49.922;7.966;2022-07-23T09:55:31;100106.75;;;31.58;35.25
70133;BME280;57495;49.922;7.966;2022-07-23T09:57:36;100111.13;;;31.69;35.00
70133;BME280;57495;49.922;7.966;2022-07-23T09:59:40;100107.31;;;31.45;35.80
70133;BME280;57495;49.922;7.966;2022-07-23T10:01:42;100110.78;;;31.86;35.94
70133;BME280;57495;49.922;7.966;2022-07-23T10:03:46;100114.72;;;31.75;35.57
70133;BME280;57495;49.922;7.966;2022-07-23T10:05:48;100104.81;;;31.33;34.72
70133;BME280;57495;49.922;7.966;2022-07-23T10:07:51;100108.06;;;31.76;34.60
70133;BME280;57495;49.922;7.966;2022-07-23T10:09:53;100112.94;;;32.15;34.50
70133;BME280;57495;49.922;7.966;2022-07-23T10:11:58;100112.00;;;32.30;32.36
70133;BME280;57495;49.922;7.966;2022-07-23T10:14:04;100109.56;;;31.07;32.73
70133;BME280;57495;49.922;7.966;2022-07-23T10:16:07;100110.38;;;31.02;34.02
70133;BME280;57495;49.922;7.966;2022-07-23T10:18:10;100111.72;;;31.56;32.39
70133;BME280;57495;49.922;7.966;2022-07-23T10:20:13;100104.56;;;31.14;32.53
70133;BME280;57495;49.922;7.966;2022-07-23T10:22:20;100106.59;;;31.99;33.21
70133;BME280;57495;49.922;7.966;2022-07-23T10:24:30;100108.84;;;31.87;33.30
70133;BME280;57495;49.922;7.966;2022-07-23T10:26:42;100099.94;;;32.00;32.87
70133;BME280;57495;49.922;7.966;2022-07-23T10:28:56;100103.63;;;32.40;32.46
70133;BME280;57495;49.922;7.966;2022-07-23T10:31:06;100103.78;;;32.64;31.99
70133;BME280;57495;49.922;7.966;2022-07-23T10:33:18;100110.38;;;32.18;31.59
70133;BME280;57495;49.922;7.966;2022-07-23T10:35:26;100106.63;;;31.89;31.99
70133;BME280;57495;49.922;7.966;2022-07-23T10:37:35;100110.50;;;31.93;32.72
70133;BME280;57495;49.922;7.966;2022-07-23T10:39:38;100100.75;;;32.61;32.50
70133;BME280;57495;49.922;7.966;2022-07-23T10:41:40;100104.19;;;32.37;31.28
70133;BME280;57495;49.922;7.966;2022-07-23T10:43:41;100101.16;;;32.33;32.72